This is the latest recevied weather packets stored in our database for station/object KJ4W. If no packets are shown the sender has not sent any weather packets the latest 10 day(s).
| Time | Temp. | Humidity | Pressure | Rain* | Wind** | Luminosity | Snow |
|---|---|---|---|---|---|---|---|
| 1788418587 | 24.44° C | 92% | 1015.2 hPa | 0 mm | - | - | - |
| 1788417686 | 24.44° C | 92% | 1015.4 hPa | 0 mm | - | - | - |
| 1788416786 | 24.44° C | 91% | 1015.5 hPa | 0 mm | - | - | - |
| 1788415885 | 25° C | 90% | 1015.5 hPa | 0 mm | - | - | - |
| 1788414086 | 25° C | 90% | 1015.6 hPa | 0 mm | - | - | - |
| 1788413186 | 25° C | 90% | 1015.6 hPa | 0 mm | - | - | - |
| 1788412286 | 25° C | 91% | 1015.6 hPa | 0 mm | - | - | - |
| 1788411386 | 25° C | 90% | 1015.6 hPa | 0 mm | - | - | - |
| 1788410486 | 25° C | 90% | 1015.4 hPa | 0 mm | - | - | - |
| 1788409587 | 25° C | 89% | 1015.6 hPa | 0 mm | - | - | - |
| 1788408686 | 25° C | 90% | 1015.5 hPa | 0 mm | - | - | - |
| 1788407786 | 25° C | 90% | 1015.4 hPa | 0 mm | - | - | - |
| 1788406885 | 25.56° C | 89% | 1015.7 hPa | 0 mm | - | - | - |
| 1788405986 | 25.56° C | 88% | 1015.6 hPa | 0 mm | - | - | - |
| 1788405085 | 26.11° C | 87% | 1015.5 hPa | 0 mm | - | - | - |
| 1788404186 | 26.11° C | 85% | 1015.6 hPa | 0 mm | - | - | - |
| 1788403286 | 26.67° C | 84% | 1015.5 hPa | 0 mm | - | - | - |
| 1788402385 | 27.22° C | 83% | 1015.4 hPa | 0 mm | - | - | - |
| 1788401485 | 27.22° C | 81% | 1015.3 hPa | 0 mm | - | - | - |
| 1788380785 | 35.56° C | 54% | 1015.7 hPa | 0 mm | - | - | - |
| 1788379886 | 35.56° C | 51% | 1016 hPa | 0 mm | - | - | - |
| 1788376286 | 35° C | 58% | 1016.7 hPa | 0 mm | - | - | - |
| 1788374485 | 35.56° C | 55% | 1016.9 hPa | 0 mm | - | - | - |
| 1788373584 | 35.56° C | 56% | 1017.1 hPa | 0 mm | - | - | - |
| 1788372684 | 35.56° C | 53% | 1017.1 hPa | 0 mm | - | - | - |
* Rain latest hour (hover to see other rain measurements)
** Current wind speed in m/s (hover to see current wind gust speed)